createdAt,value
2023-04-23T00:01:49.000Z,5.20
2023-04-23T00:04:19.242Z,6.47
2023-04-23T00:06:47.321Z,6.87
2023-04-23T00:09:16.094Z,6.53
2023-04-23T00:11:42.925Z,5.57
2023-04-23T00:14:10.644Z,5.23
2023-04-23T00:16:38.926Z,6.23
2023-04-23T00:19:05.412Z,6.07
2023-04-23T00:21:31.956Z,6.07
2023-04-23T00:23:58.436Z,5.73
2023-04-23T00:26:25.056Z,5.87
2023-04-23T00:28:51.548Z,5.87
2023-04-23T00:31:18.487Z,6.10
2023-04-23T00:33:44.970Z,5.30
2023-04-23T00:36:11.465Z,5.60
2023-04-23T00:38:37.979Z,6.40
2023-04-23T00:41:05.381Z,5.80
2023-04-23T00:43:33.039Z,5.97
2023-04-23T00:46:00.111Z,6.10
2023-04-23T00:48:28.125Z,5.40
2023-04-23T00:51:05.350Z,5.07
2023-04-23T00:53:33.300Z,5.10
2023-04-23T00:56:04.667Z,5.60
2023-04-23T00:58:33.170Z,5.17
2023-04-23T01:01:02.090Z,4.67
2023-04-23T01:03:29.169Z,4.77
2023-04-23T01:05:57.184Z,4.97
2023-04-23T01:08:25.419Z,5.07
2023-04-23T01:10:53.654Z,5.57
2023-04-23T01:13:21.614Z,5.40
2023-04-23T01:15:48.130Z,5.90
2023-04-23T01:18:14.737Z,5.57
2023-04-23T01:20:42.444Z,5.57
2023-04-23T01:23:08.955Z,5.80
2023-04-23T01:25:35.631Z,5.70
2023-04-23T01:28:02.266Z,5.43
2023-04-23T01:30:30.303Z,5.33
2023-04-23T01:32:57.991Z,5.37
2023-04-23T01:35:25.458Z,5.53
2023-04-23T01:37:56.642Z,5.10
2023-04-23T01:40:23.198Z,5.13
2023-04-23T01:42:50.372Z,5.50
2023-04-23T01:45:19.613Z,4.97
2023-04-23T01:47:47.104Z,4.70
2023-04-23T01:50:14.608Z,5.70
2023-04-23T01:52:41.744Z,5.37
2023-04-23T01:55:08.892Z,5.43
2023-04-23T01:57:35.970Z,6.13
2023-04-23T02:00:10.478Z,5.33
2023-04-23T02:02:39.091Z,5.67
2023-04-23T02:05:12.330Z,6.27
2023-04-23T02:07:39.542Z,6.03
2023-04-23T02:10:07.583Z,5.60
2023-04-23T02:12:36.428Z,5.17
2023-04-23T02:15:05.803Z,5.47
2023-04-23T02:17:32.596Z,6.13
2023-04-23T02:19:59.131Z,4.97
2023-04-23T02:22:25.829Z,4.90
2023-04-23T02:24:53.861Z,6.17
2023-04-23T02:27:21.330Z,5.67
2023-04-23T02:29:49.217Z,6.17
2023-04-23T02:32:16.014Z,5.80
2023-04-23T02:34:43.110Z,4.93
2023-04-23T02:37:09.815Z,4.60
2023-04-23T02:39:38.209Z,5.43
2023-04-23T02:42:04.782Z,5.90
2023-04-23T02:44:31.304Z,5.83
2023-04-23T02:46:57.920Z,5.20
2023-04-23T02:49:25.372Z,5.40
2023-04-23T02:51:51.877Z,6.30
2023-04-23T02:54:18.503Z,5.37
2023-04-23T02:56:45.111Z,5.43
2023-04-23T02:59:11.653Z,5.67
2023-04-23T03:01:38.193Z,6.00
2023-04-23T03:04:04.994Z,5.50
2023-04-23T03:06:33.687Z,5.43
2023-04-23T03:09:00.279Z,5.43
2023-04-23T03:11:26.831Z,4.77
2023-04-23T03:13:53.329Z,4.57
2023-04-23T03:16:19.827Z,4.77
2023-04-23T03:18:46.379Z,4.73
2023-04-23T03:21:12.880Z,5.50
2023-04-23T03:23:39.714Z,5.70
2023-04-23T03:26:06.220Z,5.60
2023-04-23T03:28:32.921Z,5.70
2023-04-23T03:30:59.585Z,5.30
2023-04-23T03:33:26.109Z,5.60
2023-04-23T03:35:52.596Z,5.97
2023-04-23T03:38:19.087Z,5.47
2023-04-23T03:40:45.577Z,5.17
2023-04-23T03:43:12.102Z,5.07
2023-04-23T03:45:38.591Z,4.80
2023-04-23T03:48:05.135Z,4.80
2023-04-23T03:50:33.714Z,5.30
2023-04-23T03:53:00.755Z,4.97
2023-04-23T03:55:27.252Z,5.47
2023-04-23T03:57:53.750Z,5.23
2023-04-23T04:00:20.837Z,5.10
2023-04-23T04:02:47.511Z,5.17
2023-04-23T04:05:14.173Z,5.43
2023-04-23T04:07:40.777Z,5.97
2023-04-23T04:10:07.814Z,5.30
2023-04-23T04:12:34.348Z,5.43
2023-04-23T04:15:05.211Z,5.90
2023-04-23T04:17:31.722Z,5.33
2023-04-23T04:19:58.219Z,5.60
2023-04-23T04:22:24.758Z,5.33
2023-04-23T04:24:51.961Z,5.90
2023-04-23T04:27:18.865Z,5.93
2023-04-23T04:29:45.386Z,5.10
2023-04-23T04:32:12.804Z,5.50
2023-04-23T04:34:39.702Z,5.93
2023-04-23T04:37:06.982Z,5.97
2023-04-23T04:39:33.498Z,5.93
2023-04-23T04:42:02.096Z,5.67
2023-04-23T04:44:29.692Z,5.57
2023-04-23T04:46:56.374Z,5.70
2023-04-23T04:49:23.140Z,5.73
2023-04-23T04:51:49.628Z,5.87
2023-04-23T04:54:16.134Z,5.40
2023-04-23T04:56:42.641Z,5.73
2023-04-23T04:59:09.100Z,6.10
2023-04-23T05:01:36.324Z,6.33
2023-04-23T05:04:03.348Z,6.17
2023-04-23T05:06:31.561Z,5.80
2023-04-23T05:08:58.038Z,6.27
2023-04-23T05:11:24.534Z,6.30
2023-04-23T05:13:51.157Z,7.37
2023-04-23T05:16:18.522Z,5.70
2023-04-23T05:18:45.746Z,5.83
2023-04-23T05:21:12.270Z,6.30
2023-04-23T05:23:38.751Z,6.10
2023-04-23T05:26:05.320Z,5.97
2023-04-23T05:28:31.869Z,6.50
2023-04-23T05:30:58.634Z,5.83
2023-04-23T05:33:30.593Z,6.10
2023-04-23T05:35:59.816Z,5.77
2023-04-23T05:38:26.356Z,5.57
2023-04-23T05:40:52.912Z,6.40
2023-04-23T05:43:19.464Z,5.50
2023-04-23T05:45:45.978Z,5.97
2023-04-23T05:48:12.514Z,5.70
2023-04-23T05:50:39.044Z,6.20
2023-04-23T05:53:05.759Z,6.30
2023-04-23T05:55:32.282Z,5.93
2023-04-23T05:57:58.752Z,6.20
2023-04-23T06:00:25.239Z,5.90
2023-04-23T06:02:51.774Z,6.00
2023-04-23T06:05:18.584Z,5.87
2023-04-23T06:07:45.309Z,6.17
2023-04-23T06:10:12.397Z,6.10
2023-04-23T06:12:39.449Z,5.50
2023-04-23T06:15:08.203Z,6.50
2023-04-23T06:17:35.680Z,5.63
2023-04-23T06:20:04.274Z,6.43
2023-04-23T06:22:31.775Z,6.17
2023-04-23T06:24:58.240Z,6.50
2023-04-23T06:27:26.248Z,6.10
2023-04-23T06:29:52.750Z,6.60
2023-04-23T06:32:20.584Z,6.37
2023-04-23T06:35:00.118Z,6.33
2023-04-23T06:37:30.055Z,6.43
2023-04-23T06:39:57.853Z,6.27
2023-04-23T06:42:24.479Z,6.77
2023-04-23T06:44:51.142Z,6.03
2023-04-23T06:47:19.255Z,6.37
2023-04-23T06:49:45.760Z,6.00
2023-04-23T06:52:12.282Z,6.23
2023-04-23T06:54:38.823Z,6.40
2023-04-23T06:57:05.669Z,6.83
2023-04-23T06:59:32.162Z,7.00
2023-04-23T07:01:58.694Z,6.10
2023-04-23T07:04:25.329Z,6.62
2023-04-23T07:06:51.873Z,6.55
2023-04-23T07:09:18.362Z,6.68
2023-04-23T07:11:44.869Z,6.25
2023-04-23T07:14:11.467Z,6.85
2023-04-23T07:16:38.029Z,6.25
2023-04-23T07:19:04.521Z,5.25
2023-04-23T07:21:32.222Z,5.78
2023-04-23T07:24:08.083Z,5.40
2023-04-23T07:26:37.498Z,5.97
2023-04-23T07:29:07.021Z,6.00
2023-04-23T07:31:33.796Z,5.82
2023-04-23T07:34:00.573Z,6.03
2023-04-23T07:36:27.152Z,6.60
2023-04-23T07:38:53.679Z,6.35
2023-04-23T07:41:20.393Z,6.20
2023-04-23T07:43:46.953Z,6.10
2023-04-23T07:46:14.201Z,6.32
2023-04-23T07:48:40.751Z,5.57
2023-04-23T07:51:08.458Z,5.15
2023-04-23T07:53:35.075Z,5.97
2023-04-23T07:56:01.588Z,6.12
2023-04-23T07:58:28.101Z,6.53
2023-04-23T08:00:54.692Z,6.22
2023-04-23T08:03:23.476Z,6.05
2023-04-23T08:05:50.346Z,6.10
2023-04-23T08:08:16.882Z,6.12
2023-04-23T08:10:43.369Z,6.28
2023-04-23T08:13:10.357Z,5.93
2023-04-23T08:15:36.885Z,5.93
2023-04-23T08:18:04.319Z,5.53
2023-04-23T08:20:31.515Z,5.37
2023-04-23T08:22:58.055Z,5.57
2023-04-23T08:25:24.827Z,5.37
2023-04-23T08:27:51.715Z,5.57
2023-04-23T08:30:18.200Z,5.57
2023-04-23T08:32:49.488Z,4.93
2023-04-23T08:35:16.250Z,5.70
2023-04-23T08:37:42.766Z,5.07
2023-04-23T08:40:09.744Z,5.22
2023-04-23T08:43:00.785Z,4.95
2023-04-23T08:45:30.727Z,4.97
2023-04-23T08:48:02.409Z,5.70
2023-04-23T08:50:30.269Z,4.82
2023-04-23T08:52:57.690Z,5.28
2023-04-23T08:55:25.428Z,5.53
2023-04-23T08:57:52.171Z,5.43
2023-04-23T09:00:22.251Z,5.72
2023-04-23T09:02:49.475Z,5.37
2023-04-23T09:05:16.345Z,5.60
2023-04-23T09:07:43.401Z,5.10
2023-04-23T09:10:12.190Z,5.32
2023-04-23T09:12:42.283Z,5.32
2023-04-23T09:15:10.305Z,5.40
2023-04-23T09:17:45.245Z,5.22
2023-04-23T09:20:13.940Z,5.80
2023-04-23T09:22:54.411Z,5.22
2023-04-23T09:25:24.445Z,5.12
2023-04-23T09:27:52.471Z,4.65
2023-04-23T09:30:19.681Z,4.75
2023-04-23T09:32:47.251Z,5.47
2023-04-23T09:35:16.975Z,4.93
2023-04-23T09:37:49.329Z,4.87
2023-04-23T09:40:23.185Z,4.80
2023-04-23T09:42:55.100Z,4.50
2023-04-23T09:45:22.176Z,4.40
2023-04-23T09:47:57.554Z,4.50
2023-04-23T09:50:37.662Z,4.53
2023-04-23T09:53:05.905Z,4.53
2023-04-23T09:55:42.251Z,4.43
2023-04-23T09:58:14.765Z,4.00
2023-04-23T10:00:42.145Z,4.45
2023-04-23T10:03:10.473Z,4.45
2023-04-23T10:05:56.288Z,4.22
2023-04-23T10:08:28.240Z,4.22
2023-04-23T10:11:09.524Z,4.25
2023-04-23T10:13:46.593Z,3.92
2023-04-23T10:16:22.355Z,4.40
2023-04-23T10:18:53.316Z,5.30
2023-04-23T10:21:28.297Z,5.15
2023-04-23T10:24:01.456Z,5.00
2023-04-23T10:26:32.414Z,4.85
2023-04-23T10:29:02.081Z,5.25
2023-04-23T10:31:32.243Z,5.15
2023-04-23T10:34:01.167Z,4.85
2023-04-23T10:36:28.297Z,4.62
2023-04-23T10:38:59.755Z,4.62
2023-04-23T10:41:36.137Z,5.03
2023-04-23T10:44:05.040Z,4.70
2023-04-23T10:46:34.762Z,4.82
2023-04-23T10:49:15.545Z,4.18
2023-04-23T10:52:17.772Z,4.53
2023-04-23T10:54:59.110Z,4.70
2023-04-23T10:57:25.610Z,4.70
2023-04-23T10:59:55.255Z,4.53
2023-04-23T11:02:24.374Z,4.47
2023-04-23T11:04:57.395Z,4.55
2023-04-23T11:07:33.505Z,3.80
2023-04-23T11:10:13.615Z,4.03
2023-04-23T11:12:40.969Z,4.18
2023-04-23T11:15:14.557Z,4.40
2023-04-23T11:17:59.950Z,3.58
2023-04-23T11:20:26.476Z,3.53
2023-04-23T11:22:52.977Z,3.90
2023-04-23T11:25:26.087Z,4.28
2023-04-23T11:27:55.280Z,3.80
2023-04-23T11:30:25.277Z,4.22
2023-04-23T11:32:55.164Z,3.90
2023-04-23T11:35:27.691Z,3.42
2023-04-23T11:37:54.487Z,4.00
2023-04-23T11:40:21.786Z,4.15
2023-04-23T11:42:50.933Z,4.20
2023-04-23T11:45:19.957Z,4.03
2023-04-23T11:47:58.134Z,4.30
2023-04-23T11:50:35.518Z,4.47
2023-04-23T11:53:22.907Z,5.18
2023-04-23T11:55:49.778Z,4.90
2023-04-23T11:58:19.138Z,4.68
2023-04-23T12:00:45.795Z,5.03
2023-04-23T12:03:13.167Z,4.68
2023-04-23T12:05:43.532Z,4.40
2023-04-23T12:08:19.372Z,4.90
2023-04-23T12:10:54.704Z,4.35
2023-04-23T12:13:24.090Z,4.93
2023-04-23T12:15:55.714Z,4.85
2023-04-23T12:18:39.644Z,4.30
2023-04-23T12:21:13.969Z,4.22
2023-04-23T12:23:43.947Z,4.70
2023-04-23T12:26:15.663Z,4.00
2023-04-23T12:28:54.761Z,4.93
2023-04-23T12:31:29.308Z,4.15
2023-04-23T12:34:07.969Z,4.50
2023-04-23T12:36:37.700Z,4.62
2023-04-23T12:39:31.056Z,4.30
2023-04-23T12:42:06.298Z,3.92
2023-04-23T12:44:35.096Z,4.47
2023-04-23T12:47:05.156Z,4.12
2023-04-23T12:49:32.858Z,4.43
2023-04-23T12:52:01.642Z,4.15
2023-04-23T12:54:31.410Z,4.28
2023-04-23T12:56:59.510Z,4.07
2023-04-23T12:59:26.573Z,4.45
2023-04-23T13:01:53.210Z,4.53
2023-04-23T13:04:19.972Z,4.55
2023-04-23T13:06:46.574Z,4.93
2023-04-23T13:09:13.205Z,5.15
2023-04-23T13:11:40.828Z,4.22
2023-04-23T13:14:09.793Z,5.07
2023-04-23T13:16:36.310Z,4.72
2023-04-23T13:19:02.860Z,5.05
2023-04-23T13:21:29.359Z,4.30
2023-04-23T13:23:57.128Z,5.25
2023-04-23T13:26:23.838Z,4.62
2023-04-23T13:28:50.358Z,4.57
2023-04-23T13:31:16.939Z,4.85
2023-04-23T13:33:43.455Z,4.80
2023-04-23T13:36:09.974Z,4.75
2023-04-23T13:38:36.492Z,5.15
2023-04-23T13:41:02.987Z,5.10
2023-04-23T13:43:29.489Z,4.60
2023-04-23T13:45:56.096Z,4.65
2023-04-23T13:48:27.882Z,4.68
2023-04-23T13:50:55.411Z,4.90
2023-04-23T13:53:22.136Z,4.65
2023-04-23T13:55:48.652Z,4.35
2023-04-23T13:58:15.266Z,4.70
2023-04-23T14:00:42.893Z,4.55
2023-04-23T14:03:09.582Z,4.50
2023-04-23T14:05:36.295Z,4.65
2023-04-23T14:08:02.857Z,4.70
2023-04-23T14:10:29.354Z,4.57
2023-04-23T14:12:55.976Z,4.47
2023-04-23T14:15:22.960Z,4.05
2023-04-23T14:17:49.570Z,4.03
2023-04-23T14:20:18.952Z,4.68
2023-04-23T14:22:54.890Z,4.65
2023-04-23T14:25:39.818Z,4.85
2023-04-23T14:28:44.625Z,4.50
2023-04-23T14:31:11.195Z,4.40
2023-04-23T14:33:37.705Z,4.57
2023-04-23T14:36:04.455Z,4.70
2023-04-23T14:38:30.967Z,4.25
2023-04-23T14:40:57.459Z,4.62
2023-04-23T14:43:23.991Z,4.45
2023-04-23T14:45:51.240Z,5.10
2023-04-23T14:48:17.746Z,4.62
2023-04-23T14:50:44.276Z,4.62
2023-04-23T14:53:10.804Z,4.37
2023-04-23T14:55:39.089Z,4.55
2023-04-23T14:58:05.668Z,4.30
2023-04-23T15:00:32.744Z,4.87
2023-04-23T15:03:00.544Z,5.20
2023-04-23T15:05:27.124Z,5.20
2023-04-23T15:07:53.632Z,5.18
2023-04-23T15:10:23.016Z,4.78
2023-04-23T15:13:06.433Z,4.87
2023-04-23T15:15:49.180Z,5.30
2023-04-23T15:18:16.357Z,5.32
2023-04-23T15:20:44.043Z,4.65
2023-04-23T15:23:10.673Z,5.07
2023-04-23T15:25:38.566Z,4.45
2023-04-23T15:28:06.334Z,3.90
2023-04-23T15:30:32.850Z,3.67
2023-04-23T15:32:59.432Z,3.15
2023-04-23T15:35:27.200Z,3.70
2023-04-23T15:37:54.233Z,3.35
2023-04-23T15:40:20.766Z,3.10
2023-04-23T15:42:49.083Z,3.17
2023-04-23T15:45:16.251Z,3.50
2023-04-23T15:47:42.798Z,3.50
2023-04-23T15:50:10.485Z,4.00
2023-04-23T15:52:37.637Z,3.90
2023-04-23T15:55:05.341Z,3.30
2023-04-23T15:57:31.971Z,3.37
2023-04-23T15:59:58.592Z,3.55
2023-04-23T16:02:25.179Z,3.53
2023-04-23T16:04:51.859Z,3.37
2023-04-23T16:07:18.400Z,3.60
2023-04-23T16:09:44.889Z,3.55
2023-04-23T16:12:12.626Z,3.80
2023-04-23T16:14:39.545Z,3.35
2023-04-23T16:17:06.105Z,3.90
2023-04-23T16:19:32.744Z,4.05
2023-04-23T16:21:59.302Z,3.97
2023-04-23T16:24:25.784Z,4.87
2023-04-23T16:26:52.344Z,3.58
2023-04-23T16:29:22.479Z,3.17
2023-04-23T16:31:49.671Z,2.78
2023-04-23T16:34:16.229Z,3.12
2023-04-23T16:36:42.869Z,5.22
2023-04-23T16:39:10.335Z,2.90
2023-04-23T16:41:36.840Z,2.60
2023-04-23T16:44:03.374Z,2.72
2023-04-23T16:46:30.606Z,1.83
2023-04-23T16:48:57.097Z,2.00
2023-04-23T16:51:24.325Z,2.10
2023-04-23T16:53:50.914Z,2.25
2023-04-23T16:56:17.473Z,3.33
2023-04-23T16:58:44.007Z,2.35
2023-04-23T17:01:10.521Z,2.63
2023-04-23T17:03:38.356Z,2.90
2023-04-23T17:06:11.247Z,3.35
2023-04-23T17:08:38.547Z,3.00
2023-04-23T17:11:08.919Z,3.00
2023-04-23T17:13:35.559Z,3.17
2023-04-23T17:16:02.437Z,3.23
2023-04-23T17:18:29.135Z,4.00
2023-04-23T17:20:55.990Z,4.00
2023-04-23T17:23:22.475Z,5.00
2023-04-23T17:25:49.501Z,5.10
2023-04-23T17:28:17.816Z,2.80
2023-04-23T17:30:45.534Z,2.40
2023-04-23T17:33:12.097Z,2.07
2023-04-23T17:35:38.656Z,2.20
2023-04-23T17:38:05.279Z,2.10
2023-04-23T17:40:31.843Z,2.30
2023-04-23T17:42:58.318Z,2.13
2023-04-23T17:45:24.772Z,2.57
2023-04-23T17:47:51.318Z,5.30
2023-04-23T17:50:18.014Z,4.97
2023-04-23T17:52:44.894Z,4.97
2023-04-23T17:55:11.917Z,5.50
2023-04-23T17:57:38.453Z,2.80
2023-04-23T18:00:09.293Z,2.80
2023-04-23T18:02:39.505Z,2.70
2023-04-23T18:05:12.086Z,3.80
2023-04-23T18:07:40.570Z,2.87
2023-04-23T18:10:08.678Z,3.10
2023-04-23T18:12:35.328Z,3.50
2023-04-23T18:15:02.054Z,3.17
2023-04-23T18:17:28.549Z,3.57
2023-04-23T18:19:55.058Z,5.67
2023-04-23T18:22:21.685Z,4.00
2023-04-23T18:24:49.652Z,4.13
2023-04-23T18:27:16.728Z,4.63
2023-04-23T18:29:43.485Z,4.00
2023-04-23T18:32:12.319Z,3.87
2023-04-23T18:34:42.600Z,3.30
2023-04-23T18:37:15.615Z,3.63
2023-04-23T18:39:42.089Z,4.17
2023-04-23T18:42:08.562Z,3.60
2023-04-23T18:44:35.664Z,4.53
2023-04-23T18:47:02.654Z,4.70
2023-04-23T18:49:54.921Z,5.70
2023-04-23T18:52:21.680Z,4.40
2023-04-23T18:54:48.161Z,4.70
2023-04-23T18:57:14.660Z,4.27
2023-04-23T18:59:41.470Z,4.30
2023-04-23T19:02:08.575Z,4.77
2023-04-23T19:04:35.577Z,4.20
2023-04-23T19:07:02.388Z,5.07
2023-04-23T19:09:28.985Z,4.80
2023-04-23T19:11:55.511Z,4.90
2023-04-23T19:14:21.989Z,5.30
2023-04-23T19:16:50.212Z,4.67
2023-04-23T19:19:16.988Z,4.30
2023-04-23T19:21:43.531Z,4.70
2023-04-23T19:24:10.234Z,7.33
2023-04-23T19:26:36.738Z,3.30
2023-04-23T19:29:03.224Z,3.30
2023-04-23T19:31:30.023Z,3.73
2023-04-23T19:33:56.797Z,3.30
2023-04-23T19:36:23.290Z,3.87
2023-04-23T19:38:49.779Z,3.53
2023-04-23T19:41:16.264Z,3.90
2023-04-23T19:43:42.796Z,3.90
2023-04-23T19:46:09.358Z,3.60
2023-04-23T19:48:35.859Z,3.60
2023-04-23T19:51:02.338Z,4.17
2023-04-23T19:53:28.893Z,4.13
2023-04-23T19:55:55.493Z,4.27
2023-04-23T19:58:21.991Z,3.77
2023-04-23T20:00:48.553Z,4.60
2023-04-23T20:03:15.294Z,4.97
2023-04-23T20:05:43.974Z,4.87
2023-04-23T20:08:25.163Z,4.57
2023-04-23T20:10:52.861Z,4.33
2023-04-23T20:13:19.919Z,4.10
2023-04-23T20:15:50.154Z,4.37
2023-04-23T20:18:17.623Z,3.20
2023-04-23T20:20:44.104Z,3.77
2023-04-23T20:23:10.595Z,3.50
2023-04-23T20:25:37.145Z,3.77
2023-04-23T20:28:04.362Z,3.43
2023-04-23T20:30:30.865Z,3.70
2023-04-23T20:32:57.465Z,3.30
2023-04-23T20:35:24.030Z,3.80
2023-04-23T20:37:53.726Z,3.33
2023-04-23T20:40:20.221Z,3.10
2023-04-23T20:42:50.753Z,3.33
2023-04-23T20:45:18.805Z,3.23
2023-04-23T20:47:46.281Z,2.90
2023-04-23T20:50:13.429Z,4.63
2023-04-23T20:52:39.937Z,4.70
2023-04-23T20:55:07.509Z,6.67
2023-04-23T20:57:36.163Z,6.50
2023-04-23T21:00:06.861Z,5.50
2023-04-23T21:02:35.286Z,5.67
2023-04-23T21:05:01.841Z,4.00
2023-04-23T21:07:28.599Z,4.10
2023-04-23T21:09:55.108Z,4.40
2023-04-23T21:12:22.156Z,3.70
2023-04-23T21:14:51.778Z,2.83
2023-04-23T21:17:18.280Z,3.80
2023-04-23T21:19:44.971Z,3.40
2023-04-23T21:22:11.550Z,3.40
2023-04-23T21:24:38.043Z,3.43
2023-04-23T21:27:04.584Z,3.93
2023-04-23T21:29:32.262Z,4.30
2023-04-23T21:31:58.778Z,3.73
2023-04-23T21:34:25.266Z,3.13
2023-04-23T21:36:51.734Z,3.97
2023-04-23T21:39:18.192Z,3.27
2023-04-23T21:41:45.946Z,3.10
2023-04-23T21:44:12.407Z,3.10
2023-04-23T21:46:38.919Z,3.13
2023-04-23T21:49:06.045Z,3.10
2023-04-23T21:51:36.075Z,3.00
2023-04-23T21:54:04.719Z,5.53
2023-04-23T21:56:31.344Z,4.00
2023-04-23T21:58:57.833Z,4.17
2023-04-23T22:01:24.415Z,4.30
2023-04-23T22:03:51.871Z,5.30
2023-04-23T22:06:18.509Z,4.53
2023-04-23T22:08:47.105Z,4.47
2023-04-23T22:11:14.035Z,4.03
2023-04-23T22:13:40.510Z,4.87
2023-04-23T22:16:20.338Z,3.80
2023-04-23T22:18:51.373Z,3.03
2023-04-23T22:21:17.829Z,5.63
2023-04-23T22:23:44.317Z,5.73
2023-04-23T22:26:10.835Z,6.03
2023-04-23T22:28:37.333Z,4.70
2023-04-23T22:31:04.033Z,3.77
2023-04-23T22:33:30.510Z,3.80
2023-04-23T22:35:58.347Z,3.80
2023-04-23T22:38:24.866Z,3.67
2023-04-23T22:40:51.742Z,3.60
2023-04-23T22:43:18.264Z,4.17
2023-04-23T22:45:44.810Z,4.23
2023-04-23T22:48:11.292Z,3.80
2023-04-23T22:50:39.256Z,4.63
2023-04-23T22:53:06.225Z,5.60
2023-04-23T22:55:32.706Z,5.30
2023-04-23T22:57:59.342Z,5.13
2023-04-23T23:00:25.844Z,5.10
2023-04-23T23:02:52.358Z,4.23
2023-04-23T23:05:18.949Z,4.10
2023-04-23T23:07:45.437Z,5.00
2023-04-23T23:10:11.892Z,5.63
2023-04-23T23:12:38.579Z,5.37
2023-04-23T23:15:07.137Z,5.13
2023-04-23T23:17:33.705Z,4.40
2023-04-23T23:20:00.223Z,4.30
2023-04-23T23:22:26.723Z,4.20
2023-04-23T23:24:53.308Z,4.70
2023-04-23T23:27:19.809Z,5.07
2023-04-23T23:29:46.268Z,4.57
2023-04-23T23:32:12.771Z,4.70
2023-04-23T23:34:39.332Z,4.40
2023-04-23T23:37:06.003Z,4.13
2023-04-23T23:39:32.488Z,4.43
2023-04-23T23:41:59.873Z,4.60
2023-04-23T23:44:26.480Z,4.40
2023-04-23T23:46:53.028Z,4.60
2023-04-23T23:49:20.047Z,4.47
2023-04-23T23:51:46.905Z,3.73
2023-04-23T23:54:13.686Z,4.33
2023-04-23T23:56:40.244Z,4.67
2023-04-23T23:59:06.779Z,4.50
